Linden, MI (48451)

3:52 AM EDT on April 30, 2017 (GMT -0400)
Chestnut Grove | | Change Station

Elev 872 ft 42.81 °N, 83.80 °W | Updated 9 seconds ago

Rain
Rain
40.5 °F
Feels Like 40 °F
N
2.0
Wind Variable Wind from NE
Gusts 2.0 mph

Today
High -- | Low -- °F
--% Chance of Precip.
Yesterday
High -- | Low -- °F
Precip. -- in
Pressure 30.17 in
Visibility 8.0 miles
Clouds Mostly Cloudy 4300 ft
Overcast 6000 ft
Windchill 40 °F
Dew Point 38 °F
Humidity 89%
Rainfall 0.32 in
Snow Depth Not available.
6:30 AM 8:34 PM
Waxing Crescent, 20% visible
METAR KFNT 300653Z AUTO 10008KT 8SM -RA BKN043 OVC060 04/03 A3015 RMK AO2 SLP214 P0022 T00440028
Pressure 30.17 in
Visibility 8.0 miles
Clouds Mostly Cloudy 4300 ft
Overcast 6000 ft
Windchill 40 °F
Dew Point 38 °F
Humidity 89%
Rainfall 0.32 in
Snow Depth Not available.
6:30 AM 8:34 PM
Waxing Crescent, 20% visible
METAR KFNT 300653Z AUTO 10008KT 8SM -RA BKN043 OVC060 04/03 A3015 RMK AO2 SLP214 P0022 T00440028

Get Severe Weather Alerts

Thanks for signing up!

Be on the lookout for a verification email in your inbox.

You'll start receiving the daily forecast at 8 AM.

×

10-Day Weather Forecast

Almanac

Astronomy

Apr. 30, 2017 Rise Set
Actual Time
Civil Twilight
Nautical Twilight
Astronomical Twilight
Moon
Length of Visible Light
Length of Day
Tomorrow will be .
, % of the Moon is Illuminated

Today's Extremes

State Highs State Lows

Community

WunderPhotos

WunderBlog® & News

Nearby

Air Quality

  Air Quality AQ Index Pollutant
Not available.

Snow Depth

Station Depth Elevation

Earthquake Activity

City Distance Mag. Time & Date
Minimum magnitude displayed is 2.5.

Coastal Water Temperatures

Place Temperature

Stations

Nearby Weather Stations

Station Location Temp. Windchill Dew Point Humidity Wind Precip. Elev Updated Type
                   

Watches & Warnings

There are currently no watches in effect.